This is the latest recevied weather packets stored in our database for station/object WC4PEM-11. If no packets are shown the sender has not sent any weather packets the latest 10 day(s).
| Time | Temp. | Humidity | Pressure | Rain* | Wind** | Luminosity | Snow |
|---|---|---|---|---|---|---|---|
| 1788039103 | 23.89° C | 94% | 1018.2 hPa | 0 mm | - | - | - |
| 1788038891 | 23.89° C | 94% | 1018.2 hPa | 0 mm | - | - | - |
| 1788038591 | 23.89° C | 94% | 1018.1 hPa | 0 mm | - | - | - |
| 1788038291 | 23.89° C | 93% | 1018.2 hPa | 0 mm | - | - | - |
| 1788037991 | 23.89° C | 93% | 1018.3 hPa | 0 mm | - | - | - |
| 1788037691 | 23.89° C | 93% | 1018.3 hPa | 0 mm | - | - | - |
| 1788037391 | 24.44° C | 91% | 1018.2 hPa | 0 mm | - | - | - |
| 1788037091 | 24.44° C | 90% | 1017.8 hPa | 0 mm | - | - | - |
| 1788036791 | 25° C | 89% | 1017.5 hPa | 0 mm | - | - | - |
| 1788036491 | 25.56° C | 87% | 1017.3 hPa | 0 mm | - | - | - |
| 1788036191 | 26.11° C | 83% | 1017.3 hPa | 0 mm | - | - | - |
| 1788035923 | 27.22° C | 81% | 1017.4 hPa | 0 mm | - | - | - |
| 1788035891 | 27.22° C | 81% | 1017.4 hPa | 0 mm | - | - | - |
| 1788035591 | 28.33° C | 75% | 1017.4 hPa | 0 mm | - | - | - |
| 1788035291 | 29.44° C | 71% | 1017.5 hPa | 0 mm | - | - | - |
| 1788034991 | 31.11° C | 69% | 1017.1 hPa | 0 mm | - | - | - |
| 1788034691 | 31.67° C | 67% | 1016.2 hPa | 0 mm | - | - | - |
| 1788034391 | 32.22° C | 67% | 1016.2 hPa | 0 mm | - | - | - |
| 1788034091 | 32.78° C | 63% | 1016.3 hPa | 0 mm | - | - | - |
| 1788033791 | 34.44° C | 58% | 1016.2 hPa | 0 mm | - | - | - |
| 1788033491 | 35.56° C | 56% | 1016.3 hPa | 0 mm | - | - | - |
| 1788033410 | 35.56° C | 51% | 1016.2 hPa | 0 mm | - | - | - |
| 1788033191 | 35.56° C | 51% | 1016.2 hPa | 0 mm | - | - | - |
| 1788032891 | 35.56° C | 50% | 1016.1 hPa | 0 mm | - | - | - |
| 1788032591 | 36.11° C | 51% | 1016.2 hPa | 0 mm | - | - | - |
* Rain latest hour (hover to see other rain measurements)
** Current wind speed in m/s (hover to see current wind gust speed)